Résultats

Trail des Etoiles, 36 Km, 2300 m D+. Édition 2022.

36 Km
14/08/2022 à 07:30:00 - SAINT-VERAN (05)
173 arrivant(e)s.


 
Les autres classements de cet évènement




Place▲ Temps Dossard Nom Prenom Categ #Categ Sexe #Sexe ClubVit Moy Diplôme Partager
1 03:32:53 302 ESMIEU MATHIEU SEM 1 M 1 GRAND RAID GUILLESTROIS QUEYRAS/GUIL TRAIL CLUB10.15
2 03:42:16 529 COURIAS GUILLAUME SEM 2 M 2 LA LORIOLADE9.72
3 03:43:26 422 HANSEN HANS M0M 1 M 3 9.67
4 03:45:04 304 LAURENT ROMAIN SEM 3 M 4 COURIR A NYONS9.60
5 03:45:49 416 GOUBIER MATHIEU SEM 4 M 5 9.57
6 03:46:21 307 LEONARD THOMAS SEM 5 M 6 9.54
7 03:51:11 384 DEBEAUVAIS REMI SEM 6 M 7 9.34
8 03:53:16 305 PENNIELLO MARC M2M 1 M 8 SUD RUNNING MARSEILLE/MTC9.26
9 03:54:34 487 PRIN NICOLAS M0M 2 M 9 9.21
10 03:59:00 374 CRISTOL OLIVIER ESM 1 M 10 9.04
11 04:00:40 303 LENORMAND GUILLAUME M2M 2 M 11 TEAM RESTONICA TRAIL/SAINT YORRE8.98
12 04:08:48 369 CLAPE IGNASI SEM 7 M 12 MATXACUCA8.68
13 04:11:59 965 CIRONE GILLES M1M 1 M 13 8.57
14 04:18:11 308 LLANES-CASTELL JOSEP SEM 8 M 14 S.M. CLUB ATLETISMO TORTUGA ALGEMESI8.37
15 04:19:42 360 CHABAS ANTOINE SEM 9 M 15 8.32
16 04:21:09 441 LAMIRAULT REMY SEM 10 M 16 8.27
17 04:21:57 337 BERTRUME FREDERIC M1M 2 M 17 8.25
18 04:22:24 450 LECHAT NICOLAS SEM 11 M 18 8.23
19 04:31:26 310 MEYER JULIEN M1M 3 M 19 RUNNINGCONSEILAVIGNON BROOKS7.96
20 04:32:15 525 VILLY RONALD SEM 12 M 20 AIX ATHLE PROVENCE/TEAM MARATHONIACK7.93
21 04:32:32 510 SPAGNOL GILLES M4M 1 M 21 TRAIL EVASION7.93
22 04:34:59 408 FREGUGLIA FRANCESCO SEM 13 M 22 7.86
23 04:35:21 393 DEMATTEIS LUISA M0F 1 F 1 TEAM PODISTICA VALLE VARAITA7.84
24 04:38:11 385 DELAUNAY YANN SEM 14 M 23 7.76
25 04:39:36 434 JOUVE GUILHEM M0M 3 M 24 COURIR A JUVIGNAC-C4H27.73
26 04:41:48 418 GROSBOIS MATHIS SEM 15 M 25 BIZIAT ENDURANCE7.67
27 04:41:51 319 ALLEMANN GUILLAUME M1M 4 M 26 YANARUN7.66
28 04:43:01 486 PRIGENT ARNAUD M3M 1 M 27 7.63
29 04:43:14 448 LAVERSANNE SOPHIE M0F 2 F 2 SUD RUNNING MARSEILLE7.63
30 04:43:29 507 SILVA ALAIN M3M 2 M 28 AS CAVAILLON7.62
31 04:45:02 397 DUFFAU PHILIPPE M0M 4 M 29 OSH HYERES7.58
32 04:45:06 526 WEHRLI JEROME M2M 3 M 30 CHATEAUVIEUX TRAIL ET NATURE7.58
33 04:45:14 316 ALATERRE ARNAUD M2M 4 M 31 AATAC7.57
34 04:46:11 326 BAROGHEL DAMIEN M1M 5 M 32 TEAM ENDURANCE SHOP 137.55
35 04:48:06 317 ALCARAZ MANDY SEF 1 F 3 TEAM ENDURANCE SHOP 137.50
36 04:48:21 964 LAVILLARD JOEL M1M 6 M 33 7.49
37 04:50:19 351 BUCH TOM M0M 5 M 34 7.44
38 04:53:20 342 BONETTO PAOLO M2M 5 M 35 7.36
39 04:55:34 309 COURCELLE KAREN M2F 1 F 4 TEAM ALTORE7.31
40 04:56:24 465 MARTINS MAXIME SEM 16 M 36 7.29
41 04:56:35 509 SOLDINI MICHAEL M1M 7 M 37 7.28
42 04:57:44 375 CROISILLE BERTRAND SEM 17 M 38 7.25
43 04:58:07 498 RUFFONI UGO M3M 3 M 39 SPORT RACE VALTELLINA7.25
44 04:59:13 454 LEVEUGLE WILLIAM SEM 18 M 40 7.22
45 05:00:41 390 DELOMEZ JEROME M2M 6 M 41 7.18
46 05:02:59 459 LYON FRANCOIS M6M 1 M 42 CLUB DES AIGLES DE GOUVIEUX7.13
47 05:04:31 372 COTELLE RENAUD M2M 7 M 43 7.09
48 05:07:30 355 CASALE ROCCO M2M 8 M 44 7.02
49 05:08:05 364 CHAUVE MATHILDE SEF 2 F 5 MARSEILLE TRAIL CLUB7.01
50 05:08:44 514 TISSOT BAPTISTE SEM 19 M 45 AMADEUS AAA TRAIL7.00
51 05:12:20 371 COSTES PIERRE-EMMANUEL M4M 2 M 46 MARSEILLE TRAIL CLUB6.92
52 05:13:47 350 BRUN LAURENT M1M 8 M 47 6.88
53 05:14:04 406 FORTUNET GUILLAUME M1M 9 M 48 6.88
54 05:14:14 458 LOVERA PIERLUIGI M5M 1 M 49 TEAM PODISTICA VALLE VARAITA6.87
55 05:14:17 522 VERHOLT OSKAR SEM 20 M 50 6.87
56 05:16:42 481 PERIER YANN M1M 10 M 51 SCOCE EMBRUN6.82
57 05:16:48 423 HASSEN FABRICE M1M 11 M 52 COURIR A SAUSSET6.82
58 05:18:01 437 KULKER DIMITRI SEM 21 M 53 6.79
59 05:18:47 368 CHOQUET REMI M4M 3 M 54 MONTPELLIER ATHLETIC RUNNING CLUB6.78
60 05:19:08 961 LE-MOEL JEROME M0M 6 M 55 PAYS D'AIX TRAIL6.77
61 05:19:45 520 VAUBOURG JULIEN SEM 22 M 56 6.76
62 05:21:15 366 CHEVRIER EMMANUEL M1M 12 M 57 L'ELAN GIROUARDAIS6.72
63 05:21:16 413 GIRAUD HUGUES SEM 23 M 58 6.72
64 05:21:40 515 TROIA CHRISTOPHE M1M 13 M 59 OMJS834306.72
65 05:21:45 378 DAUPHIN MAXIME M1M 14 M 60 6.71
66 05:22:09 358 CATEL GILLES M2M 9 M 61 BMA TRAIL 30200 D+6.70
67 05:22:10 359 CATEL GUILLAUME M2M 10 M 62 6.70
68 05:24:18 494 RICARD EUGENIE M0F 3 F 6 MARSEILLE TRAIL CLUB6.66
69 05:24:28 519 VAN-RENTERGHEM MEHDI M0M 7 M 63 6.66
70 05:25:41 466 MARTY ANTOINE SEM 24 M 64 6.63
71 05:26:22 469 MAUZAT CAROLINE M1F 1 F 7 RUNNING CLUB ARPAJON6.62
72 05:26:25 407 FOURETS NICO M2M 11 M 65 6.62
73 05:29:46 446 LATRECHE CORENTIN ESM 2 M 66 6.55
74 05:30:28 398 DUMAINE NATHALIE M0F 4 F 8 TEAM RAIDLIGHT6.54
75 05:31:53 335 BERRUER LAURA ESF 1 F 9 USAPT6.51
76 05:32:03 361 CHAILLET FREDERIC M1M 15 M 67 TAUREAUX AILES DE CHARLEVAL6.51
77 05:32:21 447 LAUGIER LAURENCE M1F 2 F 10 COURIR A BOUC BEL AIR6.50
78 05:32:30 367 CHOIMET AUGUSTIN ESM 3 M 68 6.50
79 05:33:28 346 BOUANA CESAR M0M 8 M 69 LA FOULEE DU CHASSELAS6.48
80 05:33:36 395 DUCLOCHER JEROME M2M 12 M 70 COURIR DANS LES MONTS D'OR6.47
81 05:33:57 318 ALLAVENA NICOLAS M0M 9 M 71 6.47
82 05:33:59 502 SCHAMBERG NICOLAS M0M 10 M 72 6.47
83 05:34:00 411 GIANVITI PIERRE M2M 13 M 73 6.47
84 05:34:03 345 BORDES CHARLES SEM 25 M 74 AS ROMAGNAT6.47
85 05:35:10 516 TROPEE LOUIS SEM 26 M 75 AUTOUR DU TRAIL6.44
86 05:35:22 323 AUTRIC CELINE M3F 1 F 11 LES FOULEES PELISANNAISES6.44
87 05:36:31 490 RANVIER BERTRAND M0M 11 M 76 6.42
88 05:36:32 491 RANVIER THERESE M0F 5 F 12 6.42
89 05:37:43 320 ALLIX FRANCK M3M 4 M 77 ADNGPS6.40
90 05:38:18 483 PIERRON OLIVIER M3M 5 M 78 6.38
91 05:41:38 357 CASSAGNE SEBASTIEN M0M 12 M 79 LA TEAM MICKA6.32
92 05:42:26 453 LEGRAS MARIE SEF 3 F 13 6.31
93 05:43:55 412 GILLET JEREMIE ESM 4 M 80 6.28
94 05:44:27 440 LAFAURE PIERRE M0M 13 M 81 KIKI RUNNERS TEAM TRAIL 036.27
95 05:44:49 391 DELORT PIERRE M1M 16 M 82 MARSEILLE TRAIL CLUB6.26
96 05:45:12 512 TARTARAT SOPHIE SEF 4 F 14 6.26
97 05:45:13 452 LEDER MARYON M1F 3 F 15 6.26
98 05:45:38 527 WILLEM HELENE SEF 5 F 16 TRAZACAMINOS6.25
99 05:46:52 493 RENDA RENE M6M 2 M 83 SMAC SAINT MAXIMIN ATHLETIC CLUB6.23
100 05:48:53 427 JANSEN LISANNE M0F 6 F 17 6.19
101 05:50:14 328 BECU-METAILLER JEAN-BAPTISTE M0M 14 M 84 6.17